Time;durP1;ratioP1;P1;durP2;ratioP2;P2;SDS_P1;SDS_P2;PMS_P1;PMS_P2;Temp;Humidity;BMP_temperature;BMP_pressure;BME280_temperature;BME280_humidity;BME280_pressure;Samples;Min_cycle;Max_cycle;Signal;HPM_P1;HPM_P2
2020/12/30 00:01:09;;;;;;;;;;;3.10;99.90;;;;;;5139502;27;19950;-84
2020/12/30 00:03:35;;;;;;;;;;;3.00;99.90;;;;;;5134360;27;19907;-84
2020/12/30 00:06:01;;;;;;;;;;;3.00;99.90;;;;;;5157298;27;19962;-84
2020/12/30 00:08:29;;;;;;;;;;;2.90;99.90;;;;;;5138512;27;20367;-84
2020/12/30 00:10:58;;;;;;;;;;;2.90;99.90;;;;;;5157617;27;19915;-85
2020/12/30 00:13:26;;;;;;;;;;;2.90;99.90;;;;;;5139031;27;20434;-84
2020/12/30 00:15:52;;;;;;;;;;;2.90;99.90;;;;;;5133991;27;19907;-85
2020/12/30 00:18:20;;;;;;;;;;;2.80;99.90;;;;;;5138852;27;19907;-84
2020/12/30 00:20:49;;;;;;;;;;;2.80;99.90;;;;;;5139116;27;19989;-84
2020/12/30 00:23:20;;;;;;;;;;;2.80;99.90;;;;;;5138574;27;19911;-85
2020/12/30 00:25:49;;;;;;;;;;;2.70;99.90;;;;;;5157449;27;19908;-84
2020/12/30 00:28:17;;;;;;;;;;;2.70;99.90;;;;;;5139001;27;19915;-85
2020/12/30 00:30:43;;;;;;;;;;;2.60;99.90;;;;;;5138591;27;19911;-84
2020/12/30 00:33:12;;;;;;;;;;;2.60;99.90;;;;;;5157306;27;19934;-84
2020/12/30 00:35:40;;;;;;;;;;;2.50;99.90;;;;;;5152804;27;19907;-84
2020/12/30 00:38:08;;;;;;;;;;;2.50;99.90;;;;;;5138636;27;19918;-84
2020/12/30 00:40:39;;;;;;;;;;;2.50;99.90;;;;;;5157058;27;19908;-84
2020/12/30 00:43:12;;;;;;;;;;;2.40;99.90;;;;;;5138590;27;19914;-84
2020/12/30 00:45:43;;;;;;;;;;;2.40;99.90;;;;;;5138765;27;19907;-84
2020/12/30 00:48:12;;;;;;;;;;;2.30;99.90;;;;;;5138400;27;20299;-85
2020/12/30 00:50:48;;;;;;;;;;;2.30;99.90;;;;;;5157016;27;19911;-84
2020/12/30 00:53:14;;;;;;;;;;;2.20;99.90;;;;;;5138559;27;19913;-85
2020/12/30 00:55:42;;;;;;;;;;;2.20;99.90;;;;;;5156781;27;20002;-84
2020/12/30 00:58:08;;;;;;;;;;;2.20;99.90;;;;;;5138385;27;19907;-85
2020/12/30 01:00:39;;;;;;;;;;;2.10;99.90;;;;;;5135283;27;19911;-84
2020/12/30 01:03:04;;;;;;;;;;;2.10;99.90;;;;;;5132045;27;19922;-84
2020/12/30 01:05:40;;;;;;;;;;;2.00;99.90;;;;;;5157334;27;19907;-84
2020/12/30 01:08:06;;;;;;;;;;;1.90;99.90;;;;;;5129968;27;19919;-85
2020/12/30 01:10:40;;;;;;;;;;;1.90;99.90;;;;;;5133671;27;20014;-85
2020/12/30 01:13:07;;;;;;;;;;;1.90;99.90;;;;;;5134732;27;19907;-85
2020/12/30 01:15:38;;;;;;;;;;;1.90;99.90;;;;;;5134202;27;19907;-84
2020/12/30 01:18:03;;;;;;;;;;;1.90;99.90;;;;;;5134477;27;19912;-85
2020/12/30 01:20:29;;;;;;;;;;;1.80;99.90;;;;;;5134259;27;19911;-85
2020/12/30 01:23:02;;;;;;;;;;;1.80;99.90;;;;;;5135782;27;19907;-85
2020/12/30 01:25:30;;;;;;;;;;;1.70;99.90;;;;;;5134501;27;19914;-85
2020/12/30 01:27:58;;;;;;;;;;;1.70;99.90;;;;;;5134108;27;19912;-85
2020/12/30 01:30:26;;;;;;;;;;;1.60;99.90;;;;;;5134275;27;19911;-84
2020/12/30 01:32:56;;;;;;;;;;;1.60;99.90;;;;;;5134576;27;19914;-85
2020/12/30 01:35:21;;;;;;;;;;;1.60;99.90;;;;;;5135322;27;19915;-85
2020/12/30 01:37:49;;;;;;;;;;;1.60;99.90;;;;;;5129304;27;19907;-85
2020/12/30 01:40:18;;;;;;;;;;;1.50;99.90;;;;;;5135122;27;19908;-84
2020/12/30 01:42:44;;;;;;;;;;;1.50;99.90;;;;;;5133610;27;20001;-84
2020/12/30 01:45:13;;;;;;;;;;;1.50;99.90;;;;;;5134298;27;19911;-85
2020/12/30 01:47:51;;;;;;;;;;;1.60;99.90;;;;;;5129917;27;19916;-85
2020/12/30 01:50:32;;;;;;;;;;;1.60;99.90;;;;;;5133821;27;20316;-85
2020/12/30 01:52:58;;;;;;;;;;;1.70;99.90;;;;;;5133247;27;19986;-84
2020/12/30 01:55:25;;;;;;;;;;;1.80;99.90;;;;;;5133543;27;19907;-85
2020/12/30 01:57:57;;;;;;;;;;;1.90;99.90;;;;;;5133181;27;19907;-85
2020/12/30 02:00:22;;;;;;;;;;;2.00;99.90;;;;;;5133878;27;19943;-85
2020/12/30 02:02:55;;;;;;;;;;;2.00;99.90;;;;;;5127333;27;19907;-85
2020/12/30 02:05:24;;;;;;;;;;;2.10;99.90;;;;;;5134807;27;19919;-86
2020/12/30 02:07:51;;;;;;;;;;;2.10;99.90;;;;;;5133293;27;20039;-85
2020/12/30 02:10:25;;;;;;;;;;;2.20;99.90;;;;;;5135097;27;19907;-85
2020/12/30 02:12:53;;;;;;;;;;;2.20;99.90;;;;;;5133917;27;19915;-85
2020/12/30 02:15:30;;;;;;;;;;;2.20;99.90;;;;;;5132721;27;19919;-85
2020/12/30 02:18:02;;;;;;;;;;;2.20;99.90;;;;;;5133616;28;19997;-86
2020/12/30 02:20:35;;;;;;;;;;;2.20;99.90;;;;;;5133152;28;20383;-85
2020/12/30 02:23:11;;;;;;;;;;;2.20;99.90;;;;;;5133693;28;19994;-85
2020/12/30 02:25:40;;;;;;;;;;;2.20;99.90;;;;;;5135104;28;20010;-85
2020/12/30 02:28:08;;;;;;;;;;;2.20;99.90;;;;;;5133713;28;20287;-85
2020/12/30 02:30:40;;;;;;;;;;;2.10;99.90;;;;;;5129009;28;19914;-85
2020/12/30 02:33:08;;;;;;;;;;;2.20;99.90;;;;;;5133625;28;20010;-84
2020/12/30 02:35:34;;;;;;;;;;;2.20;99.90;;;;;;5133222;28;19912;-85
2020/12/30 02:38:10;;;;;;;;;;;2.20;99.90;;;;;;5133019;28;19908;-85
2020/12/30 02:40:39;;;;;;;;;;;2.20;99.90;;;;;;5133437;28;19907;-85
2020/12/30 02:43:05;;;;;;;;;;;2.10;99.90;;;;;;5132941;28;20007;-84
2020/12/30 02:45:47;;;;;;;;;;;2.10;99.90;;;;;;5134593;28;19951;-85
2020/12/30 02:48:15;;;;;;;;;;;2.10;99.90;;;;;;5133111;28;20402;-85
2020/12/30 02:50:48;;;;;;;;;;;2.10;99.90;;;;;;5129083;28;20253;-85
2020/12/30 02:53:19;;;;;;;;;;;2.10;99.90;;;;;;5133115;28;19907;-85
2020/12/30 02:55:47;;;;;;;;;;;2.10;99.90;;;;;;5127659;28;19961;-85
2020/12/30 02:58:15;;;;;;;;;;;2.10;99.90;;;;;;5133378;28;19908;-85
2020/12/30 03:00:41;;;;;;;;;;;2.10;99.90;;;;;;5133569;28;19930;-85
2020/12/30 03:03:14;;;;;;;;;;;2.00;99.90;;;;;;5133105;28;19907;-85
2020/12/30 03:05:42;;;;;;;;;;;1.90;99.90;;;;;;5127676;28;19918;-85
2020/12/30 03:08:11;;;;;;;;;;;1.90;99.90;;;;;;5152709;27;20283;-85
2020/12/30 03:10:40;;;;;;;;;;;1.80;99.90;;;;;;5136646;27;19929;-85
2020/12/30 03:13:08;;;;;;;;;;;1.80;99.90;;;;;;5155241;27;19953;-85
2020/12/30 03:15:44;;;;;;;;;;;1.70;99.90;;;;;;5136970;27;20302;-85
2020/12/30 03:18:10;;;;;;;;;;;1.70;99.90;;;;;;5136530;27;19911;-84
2020/12/30 03:20:38;;;;;;;;;;;1.70;99.90;;;;;;5154638;27;19999;-85
2020/12/30 03:23:07;;;;;;;;;;;1.70;99.90;;;;;;5136542;27;19911;-85
2020/12/30 03:25:39;;;;;;;;;;;1.70;99.90;;;;;;5134734;27;19954;-85
2020/12/30 03:28:12;;;;;;;;;;;1.80;99.90;;;;;;5140027;27;19915;-84
2020/12/30 03:30:43;;;;;;;;;;;1.90;99.90;;;;;;5158511;27;19911;-85
2020/12/30 03:33:11;;;;;;;;;;;1.90;99.90;;;;;;5135772;27;19914;-85
2020/12/30 03:35:44;;;;;;;;;;;2.00;99.90;;;;;;5140463;27;19907;-85
2020/12/30 03:38:15;;;;;;;;;;;2.10;99.90;;;;;;5139763;27;19911;-85
2020/12/30 03:40:44;;;;;;;;;;;2.20;99.90;;;;;;5158486;27;19942;-85
2020/12/30 03:43:10;;;;;;;;;;;2.30;99.90;;;;;;5140520;27;19934;-85
2020/12/30 03:45:43;;;;;;;;;;;2.30;99.90;;;;;;5139765;27;20351;-84
2020/12/30 03:48:11;;;;;;;;;;;2.30;99.90;;;;;;5139862;27;19919;-85
2020/12/30 03:50:43;;;;;;;;;;;2.30;99.90;;;;;;5133733;27;19907;-84
2020/12/30 03:53:14;;;;;;;;;;;2.30;99.90;;;;;;5136479;27;20401;-85
2020/12/30 03:55:45;;;;;;;;;;;2.30;99.90;;;;;;5157898;27;19911;-85
2020/12/30 03:58:19;;;;;;;;;;;2.40;99.90;;;;;;5139355;27;20009;-85
2020/12/30 04:00:47;;;;;;;;;;;2.40;99.90;;;;;;5139449;27;19937;-85
2020/12/30 04:03:14;;;;;;;;;;;2.40;99.90;;;;;;5139543;27;19954;-85
2020/12/30 04:05:42;;;;;;;;;;;2.50;99.90;;;;;;5133877;27;19919;-85
2020/12/30 04:08:13;;;;;;;;;;;2.50;99.90;;;;;;5138697;27;19981;-85
2020/12/30 04:10:39;;;;;;;;;;;2.50;99.90;;;;;;5139126;27;19911;-84
2020/12/30 04:13:04;;;;;;;;;;;2.50;99.90;;;;;;5139454;27;19907;-85
2020/12/30 04:15:32;;;;;;;;;;;2.50;99.90;;;;;;5139467;27;20378;-85
2020/12/30 04:18:08;;;;;;;;;;;2.60;99.90;;;;;;5139142;27;19907;-85
2020/12/30 04:20:49;;;;;;;;;;;2.60;99.90;;;;;;5157877;27;20330;-85
2020/12/30 04:23:22;;;;;;;;;;;2.60;99.90;;;;;;5157482;27;19907;-85
2020/12/30 04:25:48;;;;;;;;;;;2.60;99.90;;;;;;5138723;27;19907;-85
2020/12/30 04:28:15;;;;;;;;;;;2.50;99.90;;;;;;5157797;27;19919;-84
2020/12/30 04:30:43;;;;;;;;;;;2.50;99.90;;;;;;5138861;27;19997;-85
2020/12/30 04:33:15;;;;;;;;;;;2.50;99.90;;;;;;5157360;27;19917;-85
2020/12/30 04:35:48;;;;;;;;;;;2.40;99.90;;;;;;5138641;27;19949;-84
2020/12/30 04:38:20;;;;;;;;;;;2.30;99.90;;;;;;5138206;27;20332;-85
2020/12/30 04:40:48;;;;;;;;;;;2.20;99.90;;;;;;5138635;27;19931;-85
2020/12/30 04:43:17;;;;;;;;;;;2.10;99.90;;;;;;5132340;27;19908;-84
2020/12/30 04:45:46;;;;;;;;;;;2.10;99.90;;;;;;5138487;27;20364;-85
2020/12/30 04:48:15;;;;;;;;;;;2.10;99.90;;;;;;5157065;27;19915;-85
2020/12/30 04:50:44;;;;;;;;;;;2.10;99.90;;;;;;5138565;27;20001;-85
2020/12/30 04:53:13;;;;;;;;;;;2.10;99.90;;;;;;5138545;27;19911;-85
2020/12/30 04:55:44;;;;;;;;;;;2.10;99.90;;;;;;5138787;27;19954;-84
2020/12/30 04:58:30;;;;;;;;;;;2.10;99.90;;;;;;5138340;27;19934;-85
2020/12/30 05:00:59;;;;;;;;;;;2.20;99.90;;;;;;5138012;27;19932;-85
2020/12/30 05:03:31;;;;;;;;;;;2.30;99.90;;;;;;5138395;27;19994;-84
2020/12/30 05:06:05;;;;;;;;;;;2.30;99.90;;;;;;5135419;27;20352;-85
2020/12/30 05:08:34;;;;;;;;;;;2.30;99.90;;;;;;5137717;27;19919;-85
2020/12/30 05:11:06;;;;;;;;;;;2.40;99.90;;;;;;5138165;27;19917;-85
2020/12/30 05:13:36;;;;;;;;;;;2.40;99.90;;;;;;5138443;27;19956;-85
2020/12/30 05:16:12;;;;;;;;;;;2.50;99.90;;;;;;5131604;27;19921;-85
2020/12/30 05:18:47;;;;;;;;;;;2.50;99.90;;;;;;5151954;27;19949;-85
2020/12/30 05:21:20;;;;;;;;;;;2.50;99.90;;;;;;5137847;27;19907;-85
2020/12/30 05:23:54;;;;;;;;;;;2.50;99.90;;;;;;5137752;27;19923;-85
2020/12/30 05:26:26;;;;;;;;;;;2.50;99.90;;;;;;5156447;27;19926;-84
2020/12/30 05:29:04;;;;;;;;;;;2.60;99.90;;;;;;5151066;27;20279;-85
2020/12/30 05:31:34;;;;;;;;;;;2.60;99.90;;;;;;5137901;27;19911;-84
2020/12/30 05:34:02;;;;;;;;;;;2.60;99.90;;;;;;5137661;27;20011;-85
2020/12/30 05:36:34;;;;;;;;;;;2.60;99.90;;;;;;5156157;27;20279;-85
2020/12/30 05:39:05;;;;;;;;;;;2.70;99.90;;;;;;5137349;27;19911;-85
2020/12/30 05:41:37;;;;;;;;;;;2.70;99.90;;;;;;5137348;27;19907;-84
2020/12/30 05:44:16;;;;;;;;;;;2.70;99.90;;;;;;5137244;27;19911;-84
2020/12/30 05:46:48;;;;;;;;;;;2.80;99.90;;;;;;5137280;27;19926;-84
2020/12/30 05:49:40;;;;;;;;;;;2.80;99.90;;;;;;5137306;27;19952;-84
2020/12/30 05:52:12;;;;;;;;;;;2.80;99.90;;;;;;5155891;27;20352;-84
2020/12/30 05:54:52;;;;;;;;;;;2.80;99.90;;;;;;5137197;27;19907;-85
2020/12/30 05:57:23;;;;;;;;;;;2.90;99.90;;;;;;5137482;27;19914;-85
2020/12/30 05:59:55;;;;;;;;;;;2.90;99.90;;;;;;5155541;27;19918;-85
2020/12/30 06:02:28;;;;;;;;;;;2.90;99.90;;;;;;5137501;27;19911;-84
2020/12/30 06:04:56;;;;;;;;;;;2.90;99.90;;;;;;5137553;27;19907;-84
2020/12/30 06:07:28;;;;;;;;;;;2.90;99.90;;;;;;5125293;27;20006;-85
2020/12/30 06:09:57;;;;;;;;;;;2.80;99.90;;;;;;5133809;27;19912;-84
2020/12/30 06:12:27;;;;;;;;;;;2.80;99.90;;;;;;5128228;27;19907;-85
2020/12/30 06:14:59;;;;;;;;;;;2.70;99.90;;;;;;5134989;27;19907;-84
2020/12/30 06:17:31;;;;;;;;;;;2.70;99.90;;;;;;5134808;28;19908;-84
2020/12/30 06:19:58;;;;;;;;;;;2.70;99.90;;;;;;5130905;28;19956;-84
2020/12/30 06:22:29;;;;;;;;;;;2.70;99.90;;;;;;5134026;28;20259;-84
2020/12/30 06:24:58;;;;;;;;;;;2.70;99.90;;;;;;5135534;28;19968;-84
2020/12/30 06:27:37;;;;;;;;;;;2.70;99.90;;;;;;5128032;28;20265;-84
2020/12/30 06:30:06;;;;;;;;;;;2.70;99.90;;;;;;5133465;28;19929;-84
2020/12/30 06:32:43;;;;;;;;;;;2.70;99.90;;;;;;5134468;28;19907;-85
2020/12/30 06:35:15;;;;;;;;;;;2.80;99.90;;;;;;5133881;28;19998;-85
2020/12/30 06:37:45;;;;;;;;;;;2.80;99.90;;;;;;5133207;28;19929;-85
2020/12/30 06:40:20;;;;;;;;;;;2.80;99.90;;;;;;5133602;28;19923;-85
2020/12/30 06:42:55;;;;;;;;;;;2.90;99.90;;;;;;5133460;28;19907;-85
2020/12/30 06:46:01;;;;;;;;;;;2.90;99.90;;;;;;5133330;28;19917;-84
2020/12/30 06:48:39;;;;;;;;;;;2.90;99.90;;;;;;5073560;28;20292;-84
2020/12/30 06:51:23;;;;;;;;;;;3.00;99.90;;;;;;5133171;28;19914;-84
2020/12/30 06:53:52;;;;;;;;;;;3.00;99.90;;;;;;5133793;28;20312;-85
2020/12/30 06:56:41;;;;;;;;;;;3.00;99.90;;;;;;5133661;28;19911;-85
2020/12/30 06:59:29;;;;;;;;;;;3.00;99.90;;;;;;5117519;28;19915;-85
2020/12/30 07:01:59;;;;;;;;;;;3.00;99.90;;;;;;5136105;27;19912;-85
2020/12/30 07:04:28;;;;;;;;;;;3.00;99.90;;;;;;5137868;27;20355;-84
2020/12/30 07:06:59;;;;;;;;;;;3.10;99.90;;;;;;5143988;27;19919;-84
2020/12/30 07:09:35;;;;;;;;;;;3.10;99.90;;;;;;5140876;27;19914;-84
2020/12/30 07:12:02;;;;;;;;;;;3.10;99.90;;;;;;5140948;27;19913;-85
2020/12/30 07:14:36;;;;;;;;;;;3.10;99.90;;;;;;5140489;27;20367;-85
2020/12/30 07:17:15;;;;;;;;;;;3.10;99.90;;;;;;5141095;27;20010;-84
2020/12/30 07:19:48;;;;;;;;;;;3.20;99.90;;;;;;5140413;27;19907;-84
2020/12/30 07:22:14;;;;;;;;;;;3.20;99.90;;;;;;5140598;27;19914;-85
2020/12/30 07:24:40;;;;;;;;;;;3.10;99.90;;;;;;5158855;27;19911;-84
2020/12/30 07:27:14;;;;;;;;;;;3.10;99.90;;;;;;5140648;27;19961;-85
2020/12/30 07:29:51;;;;;;;;;;;3.20;99.90;;;;;;5158555;27;19911;-85
2020/12/30 07:32:22;;;;;;;;;;;3.10;99.90;;;;;;5140165;27;19907;-84
2020/12/30 07:34:52;;;;;;;;;;;3.10;99.90;;;;;;5135652;27;19997;-84
2020/12/30 07:37:27;;;;;;;;;;;3.10;99.90;;;;;;5139486;27;19914;-85
2020/12/30 07:40:03;;;;;;;;;;;3.10;99.90;;;;;;5139874;27;19950;-84
2020/12/30 07:42:31;;;;;;;;;;;3.20;99.90;;;;;;5135642;27;20347;-85
2020/12/30 07:44:59;;;;;;;;;;;3.20;99.90;;;;;;5140018;27;20276;-85
2020/12/30 07:47:31;;;;;;;;;;;3.20;99.90;;;;;;5158216;27;20327;-84
2020/12/30 07:50:00;;;;;;;;;;;3.30;99.90;;;;;;5139987;27;19997;-85
2020/12/30 07:52:36;;;;;;;;;;;;;;;;;;;;;
2020/12/30 07:55:04;;;;;;;;;;;3.30;99.90;;;;;;5158160;27;19914;-85
2020/12/30 07:57:39;;;;;;;;;;;3.30;99.90;;;;;;5139695;27;19907;-84
2020/12/30 08:00:05;;;;;;;;;;;3.40;99.90;;;;;;5139337;27;20367;-85
2020/12/30 08:02:46;;;;;;;;;;;3.40;99.90;;;;;;5139009;27;19913;-84
2020/12/30 08:05:15;;;;;;;;;;;3.40;99.90;;;;;;5118785;27;19919;-85
2020/12/30 08:07:49;;;;;;;;;;;3.40;99.90;;;;;;5114961;28;20395;-85
2020/12/30 08:10:24;;;;;;;;;;;3.40;99.90;;;;;;5114633;28;20411;-84
2020/12/30 08:13:09;;;;;;;;;;;3.40;99.90;;;;;;5114732;28;19908;-84
2020/12/30 08:15:52;;;;;;;;;;;3.50;99.90;;;;;;5114885;28;19946;-85
2020/12/30 08:18:26;;;;;;;;;;;3.50;99.90;;;;;;5124146;27;19908;-84
2020/12/30 08:20:58;;;;;;;;;;;3.40;99.90;;;;;;5130771;27;19915;-84
2020/12/30 08:23:24;;;;;;;;;;;3.50;99.90;;;;;;5134759;27;19914;-85
2020/12/30 08:26:03;;;;;;;;;;;3.50;99.90;;;;;;5135693;27;19912;-84
2020/12/30 08:28:31;;;;;;;;;;;3.50;99.90;;;;;;5129013;27;19939;-84
2020/12/30 08:31:02;;;;;;;;;;;3.50;99.90;;;;;;5120898;27;19907;-85
2020/12/30 08:33:31;;;;;;;;;;;3.50;99.90;;;;;;5127707;27;20082;-84
2020/12/30 08:36:07;;;;;;;;;;;3.50;99.90;;;;;;5118883;27;20276;-86
2020/12/30 08:38:40;;;;;;;;;;;3.60;99.90;;;;;;5114291;28;19912;-84
2020/12/30 08:41:15;;;;;;;;;;;3.60;99.90;;;;;;5120157;27;20375;-85
2020/12/30 08:43:47;;;;;;;;;;;3.60;99.90;;;;;;5124460;27;19908;-84
2020/12/30 08:46:20;;;;;;;;;;;3.60;99.90;;;;;;5128778;27;20324;-85
2020/12/30 08:48:49;;;;;;;;;;;3.70;99.90;;;;;;5125909;27;19919;-85
2020/12/30 08:51:33;;;;;;;;;;;3.70;99.90;;;;;;5114386;28;20049;-84
2020/12/30 08:54:15;;;;;;;;;;;3.70;99.90;;;;;;5123491;27;19912;-85
2020/12/30 08:56:47;;;;;;;;;;;3.70;99.90;;;;;;5114444;28;20363;-85
2020/12/30 08:59:20;;;;;;;;;;;3.70;99.90;;;;;;5130938;27;20006;-86
2020/12/30 09:01:49;;;;;;;;;;;3.70;99.90;;;;;;5114645;28;20041;-86
2020/12/30 09:04:17;;;;;;;;;;;3.80;99.90;;;;;;5113473;28;19908;-87
2020/12/30 09:06:54;;;;;;;;;;;3.80;99.90;;;;;;5123100;27;20660;-85
2020/12/30 09:09:22;;;;;;;;;;;3.80;99.90;;;;;;5122086;27;19921;-85
2020/12/30 09:11:49;;;;;;;;;;;3.80;99.90;;;;;;5119768;27;19915;-85
2020/12/30 09:14:30;;;;;;;;;;;3.90;99.90;;;;;;5118277;27;19912;-85
2020/12/30 09:17:05;;;;;;;;;;;3.80;99.90;;;;;;5114396;27;19911;-86
2020/12/30 09:19:49;;;;;;;;;;;3.90;99.90;;;;;;5141707;27;20003;-85
2020/12/30 09:22:17;;;;;;;;;;;3.90;99.90;;;;;;5135466;27;19912;-85
2020/12/30 09:24:52;;;;;;;;;;;3.90;99.90;;;;;;5129385;27;19914;-86
2020/12/30 09:27:23;;;;;;;;;;;3.90;99.90;;;;;;5134383;27;19939;-86
2020/12/30 09:30:04;;;;;;;;;;;3.90;99.90;;;;;;5116757;27;19914;-85
2020/12/30 09:32:32;;;;;;;;;;;4.00;99.90;;;;;;5134955;27;19950;-85
2020/12/30 09:35:08;;;;;;;;;;;4.00;99.90;;;;;;5126551;27;19923;-85
2020/12/30 09:37:51;;;;;;;;;;;4.10;99.90;;;;;;5127982;27;20367;-85
2020/12/30 09:40:39;;;;;;;;;;;4.10;99.90;;;;;;5116578;27;19951;-85
2020/12/30 09:43:31;;;;;;;;;;;4.10;99.90;;;;;;5116666;27;19911;-86
2020/12/30 09:46:07;;;;;;;;;;;4.10;99.90;;;;;;5111342;27;19911;-86
2020/12/30 09:48:39;;;;;;;;;;;4.20;99.90;;;;;;5116928;27;19922;-86
2020/12/30 09:51:05;;;;;;;;;;;4.20;99.90;;;;;;5135158;27;20420;-86
2020/12/30 09:53:42;;;;;;;;;;;4.30;99.90;;;;;;5111697;27;19911;-85
2020/12/30 09:56:13;;;;;;;;;;;4.30;99.90;;;;;;5114975;27;20326;-86
2020/12/30 09:58:42;;;;;;;;;;;4.30;99.90;;;;;;5115810;27;19914;-86
2020/12/30 10:01:10;;;;;;;;;;;4.40;99.90;;;;;;5116295;28;19987;-86
2020/12/30 10:03:44;;;;;;;;;;;4.40;99.90;;;;;;5130636;27;19960;-86
2020/12/30 10:06:20;;;;;;;;;;;4.40;99.90;;;;;;5120076;27;20307;-86
2020/12/30 10:09:11;;;;;;;;;;;4.50;99.90;;;;;;5139511;27;19969;-86
2020/12/30 10:11:40;;;;;;;;;;;4.50;99.90;;;;;;5116287;27;19919;-85
2020/12/30 10:14:12;;;;;;;;;;;4.50;99.90;;;;;;5116122;28;19956;-85
2020/12/30 10:16:48;;;;;;;;;;;4.50;99.90;;;;;;5134449;28;19908;-85
2020/12/30 10:19:19;;;;;;;;;;;4.60;99.90;;;;;;5116008;28;19997;-86
2020/12/30 10:21:51;;;;;;;;;;;4.60;99.90;;;;;;5115688;28;20038;-85
2020/12/30 10:24:48;;;;;;;;;;;4.60;99.90;;;;;;5132908;28;19962;-86
2020/12/30 10:27:19;;;;;;;;;;;4.60;99.90;;;;;;5114676;28;19920;-86
2020/12/30 10:29:51;;;;;;;;;;;4.60;99.90;;;;;;5123432;27;19907;-86
2020/12/30 10:32:19;;;;;;;;;;;4.70;99.90;;;;;;5155136;27;19918;-86
2020/12/30 10:34:48;;;;;;;;;;;4.70;99.90;;;;;;5136221;27;20287;-85
2020/12/30 10:37:16;;;;;;;;;;;4.70;99.90;;;;;;5153318;27;19911;-85
2020/12/30 10:39:43;;;;;;;;;;;4.70;99.90;;;;;;5124469;27;19911;-86
2020/12/30 10:42:09;;;;;;;;;;;4.70;99.90;;;;;;5132677;27;19908;-86
2020/12/30 10:44:37;;;;;;;;;;;4.70;99.90;;;;;;5123879;27;19991;-86
2020/12/30 10:47:08;;;;;;;;;;;4.60;99.90;;;;;;5120578;27;20291;-85
2020/12/30 10:49:39;;;;;;;;;;;4.70;99.90;;;;;;5120959;27;19915;-85
2020/12/30 10:52:09;;;;;;;;;;;4.70;99.90;;;;;;5118509;27;20002;-86
2020/12/30 10:54:42;;;;;;;;;;;4.70;99.90;;;;;;5160382;27;19952;-93
2020/12/30 10:57:10;;;;;;;;;;;4.80;99.90;;;;;;5142915;27;19911;-92
2020/12/30 10:59:36;;;;;;;;;;;4.80;99.90;;;;;;5136673;27;19914;-87
2020/12/30 11:02:11;;;;;;;;;;;4.80;99.90;;;;;;5155910;27;19911;-87
2020/12/30 11:04:37;;;;;;;;;;;4.90;99.90;;;;;;5134621;27;20373;-86
2020/12/30 11:07:02;;;;;;;;;;;4.90;99.90;;;;;;5154400;27;20006;-87
2020/12/30 11:09:33;;;;;;;;;;;4.90;99.90;;;;;;5154626;27;19907;-88
2020/12/30 11:12:04;;;;;;;;;;;4.80;99.90;;;;;;5159653;27;19907;-87
2020/12/30 11:14:30;;;;;;;;;;;4.80;99.90;;;;;;5137919;27;19911;-88
2020/12/30 11:16:55;;;;;;;;;;;4.90;99.90;;;;;;5138502;27;19911;-87
2020/12/30 11:19:27;;;;;;;;;;;4.90;99.90;;;;;;5154663;27;20352;-87
2020/12/30 11:21:56;;;;;;;;;;;4.90;99.90;;;;;;5154086;27;19907;-88
2020/12/30 11:24:21;;;;;;;;;;;5.10;99.90;;;;;;5141512;27;19911;-87
2020/12/30 11:26:47;;;;;;;;;;;5.20;99.90;;;;;;5154216;27;19935;-87
2020/12/30 11:29:23;;;;;;;;;;;5.20;99.90;;;;;;5141334;27;19967;-87
2020/12/30 11:31:57;;;;;;;;;;;5.30;99.90;;;;;;5159325;27;19907;-86
2020/12/30 11:34:34;;;;;;;;;;;5.40;99.90;;;;;;5157404;27;19914;-86
2020/12/30 11:37:00;;;;;;;;;;;5.50;99.90;;;;;;5140621;27;19907;-85
2020/12/30 11:39:30;;;;;;;;;;;5.50;99.90;;;;;;5150351;27;20402;-86
2020/12/30 11:41:56;;;;;;;;;;;5.50;99.90;;;;;;5140738;27;19911;-85
2020/12/30 11:44:22;;;;;;;;;;;5.40;99.90;;;;;;5137839;27;19972;-86
2020/12/30 11:46:51;;;;;;;;;;;5.30;99.90;;;;;;5126452;27;20316;-86
2020/12/30 11:49:18;;;;;;;;;;;5.30;99.90;;;;;;5123461;27;19951;-86
2020/12/30 11:51:46;;;;;;;;;;;5.30;99.90;;;;;;5125119;27;19915;-86
2020/12/30 11:54:12;;;;;;;;;;;5.30;99.90;;;;;;5119182;27;19951;-86
2020/12/30 11:56:40;;;;;;;;;;;5.40;99.90;;;;;;5119747;27;19915;-86
2020/12/30 11:59:08;;;;;;;;;;;5.40;99.90;;;;;;5115369;27;19911;-86
2020/12/30 12:01:34;;;;;;;;;;;5.50;99.90;;;;;;5119462;27;20002;-86
2020/12/30 12:04:10;;;;;;;;;;;5.50;99.90;;;;;;5118924;27;19912;-86
2020/12/30 12:06:39;;;;;;;;;;;5.40;99.90;;;;;;5116346;27;19919;-85
2020/12/30 12:09:13;;;;;;;;;;;5.40;99.90;;;;;;5130914;27;19990;-88
2020/12/30 12:11:42;;;;;;;;;;;5.50;99.90;;;;;;5134680;27;20374;-87
2020/12/30 12:14:13;;;;;;;;;;;5.50;99.90;;;;;;5139534;27;19913;-85
2020/12/30 12:16:39;;;;;;;;;;;5.70;99.90;;;;;;5130764;27;19907;-86
2020/12/30 12:19:07;;;;;;;;;;;5.80;99.90;;;;;;5119297;27;19907;-86
2020/12/30 12:21:43;;;;;;;;;;;5.70;99.90;;;;;;5114382;27;19959;-85
2020/12/30 12:24:10;;;;;;;;;;;5.70;99.90;;;;;;5136412;27;19914;-86
2020/12/30 12:26:39;;;;;;;;;;;5.60;99.90;;;;;;5114007;28;19957;-86
2020/12/30 12:29:23;;;;;;;;;;;5.60;99.90;;;;;;5097170;28;19912;-86
2020/12/30 12:32:09;;;;;;;;;;;5.70;99.90;;;;;;5097644;28;19907;-86
2020/12/30 12:34:41;;;;;;;;;;;5.70;99.90;;;;;;5096251;28;19907;-88
2020/12/30 12:37:10;;;;;;;;;;;5.70;99.90;;;;;;5113433;28;19908;-85
2020/12/30 12:39:39;;;;;;;;;;;5.70;99.90;;;;;;5097224;28;19912;-86
2020/12/30 12:42:08;;;;;;;;;;;5.80;99.90;;;;;;5113741;28;19907;-85
2020/12/30 12:44:43;;;;;;;;;;;5.90;99.90;;;;;;5112942;28;19939;-86
2020/12/30 12:47:11;;;;;;;;;;;6.00;99.90;;;;;;5113451;28;20324;-87
2020/12/30 12:49:37;;;;;;;;;;;6.00;99.90;;;;;;5096712;28;19916;-87
2020/12/30 12:52:04;;;;;;;;;;;6.00;99.90;;;;;;5113846;28;19978;-86
2020/12/30 12:54:50;;;;;;;;;;;6.00;99.90;;;;;;5113916;28;19915;-86
2020/12/30 12:57:24;;;;;;;;;;;6.00;99.90;;;;;;5106205;27;19911;-86
2020/12/30 12:59:52;;;;;;;;;;;6.10;99.90;;;;;;5136933;27;19914;-86
2020/12/30 13:02:22;;;;;;;;;;;6.10;99.90;;;;;;5137574;27;19907;-85
2020/12/30 13:04:56;;;;;;;;;;;6.10;99.90;;;;;;5154054;27;20321;-86
2020/12/30 13:07:43;;;;;;;;;;;6.10;99.90;;;;;;5132566;27;19919;-86
2020/12/30 13:10:11;;;;;;;;;;;6.10;99.90;;;;;;5134985;27;20010;-85
2020/12/30 13:12:40;;;;;;;;;;;6.10;99.90;;;;;;5134815;27;19908;-86
2020/12/30 13:15:17;;;;;;;;;;;6.20;99.90;;;;;;5132237;27;19914;-86
2020/12/30 13:17:49;;;;;;;;;;;6.20;99.90;;;;;;5114412;28;20383;-85
2020/12/30 13:20:29;;;;;;;;;;;6.20;99.90;;;;;;5113701;28;19908;-86
2020/12/30 13:22:58;;;;;;;;;;;6.20;99.90;;;;;;5113729;28;19914;-85
2020/12/30 13:25:32;;;;;;;;;;;6.20;99.90;;;;;;5114102;28;19919;-86
2020/12/30 13:28:04;;;;;;;;;;;6.20;99.90;;;;;;5107222;28;19922;-86
2020/12/30 13:30:30;;;;;;;;;;;6.20;99.90;;;;;;5120613;27;20268;-86
2020/12/30 13:33:01;;;;;;;;;;;6.20;99.90;;;;;;5134872;27;19911;-86
2020/12/30 13:35:27;;;;;;;;;;;6.10;99.90;;;;;;5133912;27;19955;-86
2020/12/30 13:38:06;;;;;;;;;;;6.10;99.90;;;;;;5125255;27;19911;-87
2020/12/30 13:40:35;;;;;;;;;;;6.00;99.90;;;;;;5133933;27;19967;-85
2020/12/30 13:43:04;;;;;;;;;;;6.00;99.90;;;;;;5135753;27;19912;-87
2020/12/30 13:45:33;;;;;;;;;;;6.00;99.90;;;;;;5131273;27;19939;-86
2020/12/30 13:48:08;;;;;;;;;;;5.90;99.90;;;;;;5092062;28;20324;-86
2020/12/30 13:50:54;;;;;;;;;;;5.90;99.90;;;;;;5092548;28;19934;-86
2020/12/30 13:53:28;;;;;;;;;;;5.90;99.90;;;;;;5092402;28;19980;-86
2020/12/30 13:55:59;;;;;;;;;;;6.00;99.90;;;;;;5091886;28;19915;-86
2020/12/30 13:58:34;;;;;;;;;;;6.00;99.90;;;;;;5088107;28;19908;-86
2020/12/30 14:01:17;;;;;;;;;;;6.00;99.90;;;;;;5092691;28;19954;-86
2020/12/30 14:03:48;;;;;;;;;;;6.00;99.90;;;;;;5086824;28;19909;-86
2020/12/30 14:06:26;;;;;;;;;;;6.00;99.90;;;;;;5091766;28;19908;-86
2020/12/30 14:08:57;;;;;;;;;;;6.10;99.90;;;;;;5071045;28;20497;-85
2020/12/30 14:11:26;;;;;;;;;;;6.10;99.90;;;;;;5054571;28;19951;-86
2020/12/30 14:14:03;;;;;;;;;;;6.20;99.90;;;;;;5061972;28;19913;-86
2020/12/30 14:16:32;;;;;;;;;;;6.20;99.90;;;;;;5051629;28;19924;-86
2020/12/30 14:19:06;;;;;;;;;;;6.10;99.90;;;;;;5071472;28;19948;-86
2020/12/30 14:21:41;;;;;;;;;;;6.10;99.90;;;;;;5069324;28;20285;-85
2020/12/30 14:24:10;;;;;;;;;;;6.10;99.90;;;;;;5071797;28;20001;-85
2020/12/30 14:26:36;;;;;;;;;;;6.10;99.90;;;;;;5116321;28;20336;-85
2020/12/30 14:29:07;;;;;;;;;;;6.10;99.90;;;;;;5116121;28;19918;-86
2020/12/30 14:31:39;;;;;;;;;;;6.10;99.90;;;;;;5113209;28;19921;-84
2020/12/30 14:34:07;;;;;;;;;;;6.00;99.90;;;;;;5116330;28;19916;-85
2020/12/30 14:36:33;;;;;;;;;;;6.00;99.90;;;;;;5096493;28;20006;-85
2020/12/30 14:39:12;;;;;;;;;;;5.90;99.90;;;;;;5093710;28;19912;-85
2020/12/30 14:41:40;;;;;;;;;;;5.80;99.90;;;;;;5096201;28;19930;-84
2020/12/30 14:44:06;;;;;;;;;;;5.80;99.90;;;;;;5095896;28;19911;-85
2020/12/30 14:46:35;;;;;;;;;;;5.70;99.90;;;;;;5090117;28;19914;-85
2020/12/30 14:49:11;;;;;;;;;;;5.70;99.90;;;;;;5113858;28;19920;-85
2020/12/30 14:51:40;;;;;;;;;;;5.70;99.90;;;;;;5113158;28;19916;-85
2020/12/30 14:54:14;;;;;;;;;;;5.70;99.90;;;;;;5114964;28;19908;-85
2020/12/30 14:56:45;;;;;;;;;;;5.60;99.90;;;;;;5101745;28;20368;-86